sensor_id;sensor_type;location;lat;lon;timestamp;pressure;altitude;pressure_sealevel;temperature;humidity
5996;BME280;3026;53.612;7.278;2023-06-14T00:02:23;101789.59;;;16.34;100.00
5996;BME280;3026;53.612;7.278;2023-06-14T00:04:49;101788.03;;;16.31;100.00
5996;BME280;3026;53.612;7.278;2023-06-14T00:07:17;101793.53;;;16.31;100.00
5996;BME280;3026;53.612;7.278;2023-06-14T00:09:44;101796.66;;;16.28;100.00
5996;BME280;3026;53.612;7.278;2023-06-14T00:12:12;101799.44;;;16.28;100.00
5996;BME280;3026;53.612;7.278;2023-06-14T00:14:39;101805.31;;;16.25;100.00
5996;BME280;3026;53.612;7.278;2023-06-14T00:17:06;101801.91;;;16.23;100.00
5996;BME280;3026;53.612;7.278;2023-06-14T00:19:33;101802.25;;;16.20;100.00
5996;BME280;3026;53.612;7.278;2023-06-14T00:22:01;101802.63;;;16.17;100.00
5996;BME280;3026;53.612;7.278;2023-06-14T00:24:28;101803.19;;;16.13;100.00
5996;BME280;3026;53.612;7.278;2023-06-14T00:26:56;101799.59;;;16.12;100.00
5996;BME280;3026;53.612;7.278;2023-06-14T00:29:24;101803.72;;;16.08;100.00
5996;BME280;3026;53.612;7.278;2023-06-14T00:31:51;101796.03;;;16.03;100.00
5996;BME280;3026;53.612;7.278;2023-06-14T00:34:18;101802.97;;;15.99;100.00
5996;BME280;3026;53.612;7.278;2023-06-14T00:36:44;101798.66;;;15.97;100.00
5996;BME280;3026;53.612;7.278;2023-06-14T00:39:11;101801.13;;;15.92;100.00
5996;BME280;3026;53.612;7.278;2023-06-14T00:41:39;101808.06;;;15.88;100.00
5996;BME280;3026;53.612;7.278;2023-06-14T00:44:06;101807.53;;;15.84;100.00
5996;BME280;3026;53.612;7.278;2023-06-14T00:46:34;101797.78;;;15.82;100.00
5996;BME280;3026;53.612;7.278;2023-06-14T00:49:01;101798.16;;;15.79;100.00
5996;BME280;3026;53.612;7.278;2023-06-14T00:51:28;101804.03;;;15.75;100.00
5996;BME280;3026;53.612;7.278;2023-06-14T00:53:55;101796.31;;;15.71;100.00
5996;BME280;3026;53.612;7.278;2023-06-14T00:56:21;101802.66;;;15.71;100.00
5996;BME280;3026;53.612;7.278;2023-06-14T00:58:49;101803.88;;;15.69;100.00
5996;BME280;3026;53.612;7.278;2023-06-14T01:01:16;101802.19;;;15.68;100.00
5996;BME280;3026;53.612;7.278;2023-06-14T01:03:44;101796.19;;;15.64;100.00
5996;BME280;3026;53.612;7.278;2023-06-14T01:06:18;101800.84;;;15.64;100.00
5996;BME280;3026;53.612;7.278;2023-06-14T01:09:00;101797.59;;;15.60;100.00
5996;BME280;3026;53.612;7.278;2023-06-14T01:11:32;101800.34;;;15.60;100.00
5996;BME280;3026;53.612;7.278;2023-06-14T01:14:05;101796.22;;;15.56;100.00
5996;BME280;3026;53.612;7.278;2023-06-14T01:16:33;101803.97;;;15.53;100.00
5996;BME280;3026;53.612;7.278;2023-06-14T01:19:03;101800.03;;;15.47;100.00
5996;BME280;3026;53.612;7.278;2023-06-14T01:21:30;101802.50;;;15.42;100.00
5996;BME280;3026;53.612;7.278;2023-06-14T01:24:08;101795.63;;;15.38;100.00
5996;BME280;3026;53.612;7.278;2023-06-14T01:26:36;101797.72;;;15.36;100.00
5996;BME280;3026;53.612;7.278;2023-06-14T01:29:05;101794.28;;;15.34;100.00
5996;BME280;3026;53.612;7.278;2023-06-14T01:31:34;101796.38;;;15.32;100.00
5996;BME280;3026;53.612;7.278;2023-06-14T01:34:06;101798.44;;;15.30;100.00
5996;BME280;3026;53.612;7.278;2023-06-14T01:36:34;101798.44;;;15.30;100.00
5996;BME280;3026;53.612;7.278;2023-06-14T01:39:04;101797.94;;;15.26;100.00
5996;BME280;3026;53.612;7.278;2023-06-14T01:41:34;101802.56;;;15.26;100.00
5996;BME280;3026;53.612;7.278;2023-06-14T01:44:02;101799.16;;;15.24;100.00
5996;BME280;3026;53.612;7.278;2023-06-14T01:46:30;101802.94;;;15.23;100.00
5996;BME280;3026;53.612;7.278;2023-06-14T01:48:57;101805.00;;;15.21;100.00
5996;BME280;3026;53.612;7.278;2023-06-14T01:51:24;101805.00;;;15.21;100.00
5996;BME280;3026;53.612;7.278;2023-06-14T01:53:50;101807.09;;;15.18;100.00
5996;BME280;3026;53.612;7.278;2023-06-14T01:56:17;101798.19;;;15.16;100.00
5996;BME280;3026;53.612;7.278;2023-06-14T01:58:46;101797.47;;;15.14;100.00
5996;BME280;3026;53.612;7.278;2023-06-14T02:01:13;101795.09;;;15.11;100.00
5996;BME280;3026;53.612;7.278;2023-06-14T02:03:41;101798.03;;;15.10;100.00
5996;BME280;3026;53.612;7.278;2023-06-14T02:06:10;101795.47;;;15.08;100.00
5996;BME280;3026;53.612;7.278;2023-06-14T02:08:37;101803.03;;;15.06;100.00
5996;BME280;3026;53.612;7.278;2023-06-14T02:11:04;101797.88;;;15.03;100.00
5996;BME280;3026;53.612;7.278;2023-06-14T02:13:31;101803.72;;;15.00;100.00
5996;BME280;3026;53.612;7.278;2023-06-14T02:15:59;101810.25;;;14.99;100.00
5996;BME280;3026;53.612;7.278;2023-06-14T02:18:26;101806.84;;;14.97;100.00
5996;BME280;3026;53.612;7.278;2023-06-14T02:20:53;101807.03;;;14.96;100.00
5996;BME280;3026;53.612;7.278;2023-06-14T02:23:19;101803.59;;;14.94;100.00
5996;BME280;3026;53.612;7.278;2023-06-14T02:25:46;101794.66;;;14.92;100.00
5996;BME280;3026;53.612;7.278;2023-06-14T02:28:13;101797.97;;;14.87;100.00
5996;BME280;3026;53.612;7.278;2023-06-14T02:30:40;101808.44;;;14.83;100.00
5996;BME280;3026;53.612;7.278;2023-06-14T02:33:08;101814.13;;;14.82;100.00
5996;BME280;3026;53.612;7.278;2023-06-14T02:35:37;101804.50;;;14.78;100.00
5996;BME280;3026;53.612;7.278;2023-06-14T02:38:04;101795.97;;;14.73;100.00
5996;BME280;3026;53.612;7.278;2023-06-14T02:40:31;101801.44;;;14.73;100.00
5996;BME280;3026;53.612;7.278;2023-06-14T02:42:58;101808.16;;;14.70;100.00
5996;BME280;3026;53.612;7.278;2023-06-14T02:45:25;101802.31;;;14.65;100.00
5996;BME280;3026;53.612;7.278;2023-06-14T02:47:51;101807.13;;;14.63;100.00
5996;BME280;3026;53.612;7.278;2023-06-14T02:50:20;101800.78;;;14.63;100.00
5996;BME280;3026;53.612;7.278;2023-06-14T02:52:49;101798.22;;;14.61;100.00
5996;BME280;3026;53.612;7.278;2023-06-14T02:55:16;101812.13;;;14.59;100.00
5996;BME280;3026;53.612;7.278;2023-06-14T02:57:42;101810.75;;;14.55;100.00
5996;BME280;3026;53.612;7.278;2023-06-14T03:00:10;101808.19;;;14.54;100.00
5996;BME280;3026;53.612;7.278;2023-06-14T03:02:38;101814.88;;;14.51;100.00
5996;BME280;3026;53.612;7.278;2023-06-14T03:05:06;101816.28;;;14.47;100.00
5996;BME280;3026;53.612;7.278;2023-06-14T03:07:35;101816.41;;;14.46;100.00
5996;BME280;3026;53.612;7.278;2023-06-14T03:10:07;101817.78;;;14.42;100.00
5996;BME280;3026;53.612;7.278;2023-06-14T03:12:34;101819.66;;;14.41;100.00
5996;BME280;3026;53.612;7.278;2023-06-14T03:15:02;101822.59;;;14.40;100.00
5996;BME280;3026;53.612;7.278;2023-06-14T03:17:29;101817.28;;;14.38;100.00
5996;BME280;3026;53.612;7.278;2023-06-14T03:19:59;101818.31;;;14.37;100.00
5996;BME280;3026;53.612;7.278;2023-06-14T03:22:26;101822.09;;;14.36;100.00
5996;BME280;3026;53.612;7.278;2023-06-14T03:24:55;101831.31;;;14.35;100.00
5996;BME280;3026;53.612;7.278;2023-06-14T03:27:22;101823.44;;;14.32;100.00
5996;BME280;3026;53.612;7.278;2023-06-14T03:29:48;101833.38;;;14.33;100.00
5996;BME280;3026;53.612;7.278;2023-06-14T03:32:15;101837.16;;;14.32;100.00
5996;BME280;3026;53.612;7.278;2023-06-14T03:34:42;101842.66;;;14.32;100.00
5996;BME280;3026;53.612;7.278;2023-06-14T03:37:10;101840.94;;;14.31;100.00
5996;BME280;3026;53.612;7.278;2023-06-14T03:39:37;101846.44;;;14.31;100.00
5996;BME280;3026;53.612;7.278;2023-06-14T03:42:12;101846.44;;;14.31;100.00
5996;BME280;3026;53.612;7.278;2023-06-14T03:44:39;101844.72;;;14.30;100.00
5996;BME280;3026;53.612;7.278;2023-06-14T03:47:06;101850.19;;;14.30;100.00
5996;BME280;3026;53.612;7.278;2023-06-14T03:49:33;101851.22;;;14.29;100.00
5996;BME280;3026;53.612;7.278;2023-06-14T03:52:00;101850.88;;;14.32;100.00
5996;BME280;3026;53.612;7.278;2023-06-14T03:54:27;101853.63;;;14.32;100.00
5996;BME280;3026;53.612;7.278;2023-06-14T03:56:54;101857.03;;;14.34;100.00
5996;BME280;3026;53.612;7.278;2023-06-14T03:59:23;101863.56;;;14.33;100.00
5996;BME280;3026;53.612;7.278;2023-06-14T04:01:51;101860.66;;;14.35;100.00
5996;BME280;3026;53.612;7.278;2023-06-14T04:04:18;101860.50;;;14.36;100.00
5996;BME280;3026;53.612;7.278;2023-06-14T04:06:46;101863.91;;;14.38;100.00
5996;BME280;3026;53.612;7.278;2023-06-14T04:09:13;101865.63;;;14.39;100.00
5996;BME280;3026;53.612;7.278;2023-06-14T04:11:40;101861.50;;;14.43;100.00
5996;BME280;3026;53.612;7.278;2023-06-14T04:14:07;101875.06;;;14.45;100.00
5996;BME280;3026;53.612;7.278;2023-06-14T04:16:35;101872.00;;;14.48;100.00
5996;BME280;3026;53.612;7.278;2023-06-14T04:19:02;101870.81;;;14.50;100.00
5996;BME280;3026;53.612;7.278;2023-06-14T04:21:29;101867.69;;;14.53;100.00
5996;BME280;3026;53.612;7.278;2023-06-14T04:23:55;101872.84;;;14.56;100.00
5996;BME280;3026;53.612;7.278;2023-06-14T04:26:22;101875.25;;;14.59;100.00
5996;BME280;3026;53.612;7.278;2023-06-14T04:28:55;101884.84;;;14.64;100.00
5996;BME280;3026;53.612;7.278;2023-06-14T04:31:22;101877.78;;;14.69;100.00
5996;BME280;3026;53.612;7.278;2023-06-14T04:33:51;101884.66;;;14.73;100.00
5996;BME280;3026;53.612;7.278;2023-06-14T04:36:20;101885.84;;;14.79;100.00
5996;BME280;3026;53.612;7.278;2023-06-14T04:38:47;101884.47;;;14.83;100.00
5996;BME280;3026;53.612;7.278;2023-06-14T04:41:14;101884.63;;;14.89;100.00
5996;BME280;3026;53.612;7.278;2023-06-14T04:43:41;101883.06;;;14.95;100.00
5996;BME280;3026;53.612;7.278;2023-06-14T04:46:08;101878.56;;;15.02;100.00
5996;BME280;3026;53.612;7.278;2023-06-14T04:48:37;101886.13;;;15.08;100.00
5996;BME280;3026;53.612;7.278;2023-06-14T04:51:06;101879.22;;;15.12;100.00
5996;BME280;3026;53.612;7.278;2023-06-14T04:53:33;101884.03;;;15.18;100.00
5996;BME280;3026;53.612;7.278;2023-06-14T04:56:00;101883.28;;;15.25;100.00
5996;BME280;3026;53.612;7.278;2023-06-14T04:58:28;101898.22;;;15.30;100.00
5996;BME280;3026;53.612;7.278;2023-06-14T05:00:55;101898.34;;;15.37;100.00
5996;BME280;3026;53.612;7.278;2023-06-14T05:03:22;101898.69;;;15.42;100.00
5996;BME280;3026;53.612;7.278;2023-06-14T05:05:49;101897.78;;;15.50;100.00
5996;BME280;3026;53.612;7.278;2023-06-14T05:08:17;101898.97;;;15.55;100.00
5996;BME280;3026;53.612;7.278;2023-06-14T05:10:44;101901.00;;;15.61;100.00
5996;BME280;3026;53.612;7.278;2023-06-14T05:13:11;101901.34;;;15.66;100.00
5996;BME280;3026;53.612;7.278;2023-06-14T05:15:37;101891.88;;;15.69;100.00
5996;BME280;3026;53.612;7.278;2023-06-14T05:18:04;101906.75;;;15.83;100.00
5996;BME280;3026;53.612;7.278;2023-06-14T05:20:35;101905.84;;;15.90;100.00
5996;BME280;3026;53.612;7.278;2023-06-14T05:23:03;101909.41;;;15.99;100.00
5996;BME280;3026;53.612;7.278;2023-06-14T05:25:31;101908.66;;;16.05;100.00
5996;BME280;3026;53.612;7.278;2023-06-14T05:27:58;101916.00;;;16.13;100.00
5996;BME280;3026;53.612;7.278;2023-06-14T05:30:24;101915.75;;;16.22;100.00
5996;BME280;3026;53.612;7.278;2023-06-14T05:32:51;101917.56;;;16.30;100.00
5996;BME280;3026;53.612;7.278;2023-06-14T05:35:18;101917.72;;;16.37;100.00
5996;BME280;3026;53.612;7.278;2023-06-14T05:37:47;101918.31;;;16.47;100.00
5996;BME280;3026;53.612;7.278;2023-06-14T05:40:14;101920.97;;;16.55;100.00
5996;BME280;3026;53.612;7.278;2023-06-14T05:42:43;101920.91;;;16.63;100.00
5996;BME280;3026;53.612;7.278;2023-06-14T05:45:10;101926.38;;;16.71;100.00
5996;BME280;3026;53.612;7.278;2023-06-14T05:47:37;101926.97;;;16.81;100.00
5996;BME280;3026;53.612;7.278;2023-06-14T05:50:04;101930.31;;;16.91;100.00
5996;BME280;3026;53.612;7.278;2023-06-14T05:52:31;101928.50;;;16.99;100.00
5996;BME280;3026;53.612;7.278;2023-06-14T05:54:58;101928.03;;;17.10;100.00
5996;BME280;3026;53.612;7.278;2023-06-14T05:57:26;101927.56;;;17.21;100.00
5996;BME280;3026;53.612;7.278;2023-06-14T05:59:54;101931.28;;;17.28;100.00
5996;BME280;3026;53.612;7.278;2023-06-14T06:02:21;101940.50;;;17.35;100.00
5996;BME280;3026;53.612;7.278;2023-06-14T06:04:47;101938.50;;;17.44;100.00
5996;BME280;3026;53.612;7.278;2023-06-14T06:07:14;101935.84;;;17.50;100.00
5996;BME280;3026;53.612;7.278;2023-06-14T06:09:41;101932.31;;;17.57;100.00
5996;BME280;3026;53.612;7.278;2023-06-14T06:12:08;101937.06;;;17.63;100.00
5996;BME280;3026;53.612;7.278;2023-06-14T06:14:35;101937.66;;;17.73;100.00
5996;BME280;3026;53.612;7.278;2023-06-14T06:17:04;101941.97;;;17.82;100.00
5996;BME280;3026;53.612;7.278;2023-06-14T06:19:31;101948.91;;;17.93;100.00
5996;BME280;3026;53.612;7.278;2023-06-14T06:21:58;101941.38;;;18.01;100.00
5996;BME280;3026;53.612;7.278;2023-06-14T06:24:25;101945.31;;;18.14;100.00
5996;BME280;3026;53.612;7.278;2023-06-14T06:26:52;101955.19;;;18.23;100.00
5996;BME280;3026;53.612;7.278;2023-06-14T06:29:19;101951.47;;;18.30;100.00
5996;BME280;3026;53.612;7.278;2023-06-14T06:31:46;101953.88;;;18.40;100.00
5996;BME280;3026;53.612;7.278;2023-06-14T06:34:14;101960.97;;;18.49;100.00
5996;BME280;3026;53.612;7.278;2023-06-14T06:36:41;101965.72;;;18.55;100.00
5996;BME280;3026;53.612;7.278;2023-06-14T06:39:07;101967.03;;;18.59;100.00
5996;BME280;3026;53.612;7.278;2023-06-14T06:41:35;101954.44;;;18.72;100.00
5996;BME280;3026;53.612;7.278;2023-06-14T06:44:05;101962.16;;;18.83;100.00
5996;BME280;3026;53.612;7.278;2023-06-14T06:46:32;101960.97;;;18.92;100.00
5996;BME280;3026;53.612;7.278;2023-06-14T06:48:58;101970.00;;;19.07;100.00
5996;BME280;3026;53.612;7.278;2023-06-14T06:51:27;101973.06;;;19.19;100.00
5996;BME280;3026;53.612;7.278;2023-06-14T06:53:54;101969.31;;;19.27;100.00
5996;BME280;3026;53.612;7.278;2023-06-14T06:56:20;101978.75;;;19.39;100.00
5996;BME280;3026;53.612;7.278;2023-06-14T06:58:48;101974.50;;;19.43;100.00
5996;BME280;3026;53.612;7.278;2023-06-14T07:01:15;101973.28;;;19.52;100.00
5996;BME280;3026;53.612;7.278;2023-06-14T07:03:42;101977.00;;;19.66;100.00
5996;BME280;3026;53.612;7.278;2023-06-14T07:06:09;101983.22;;;19.74;100.00
5996;BME280;3026;53.612;7.278;2023-06-14T07:08:37;101984.13;;;19.88;100.00
5996;BME280;3026;53.612;7.278;2023-06-14T07:11:05;101983.75;;;19.98;100.00
5996;BME280;3026;53.612;7.278;2023-06-14T07:13:32;101989.75;;;20.08;100.00
5996;BME280;3026;53.612;7.278;2023-06-14T07:15:59;101988.09;;;20.20;100.00
5996;BME280;3026;53.612;7.278;2023-06-14T07:18:26;101986.66;;;20.37;100.00
5996;BME280;3026;53.612;7.278;2023-06-14T07:20:53;101991.81;;;20.54;100.00
5996;BME280;3026;53.612;7.278;2023-06-14T07:23:21;101997.16;;;20.68;100.00
5996;BME280;3026;53.612;7.278;2023-06-14T07:25:49;101997.16;;;20.82;100.00
5996;BME280;3026;53.612;7.278;2023-06-14T07:28:17;101998.47;;;20.86;100.00
5996;BME280;3026;53.612;7.278;2023-06-14T07:30:46;101991.44;;;20.90;100.00
5996;BME280;3026;53.612;7.278;2023-06-14T07:33:13;101980.97;;;20.98;100.00
5996;BME280;3026;53.612;7.278;2023-06-14T07:35:40;101991.22;;;21.11;100.00
5996;BME280;3026;53.612;7.278;2023-06-14T07:38:07;101992.03;;;21.18;100.00
5996;BME280;3026;53.612;7.278;2023-06-14T07:40:34;101990.78;;;21.34;100.00
5996;BME280;3026;53.612;7.278;2023-06-14T07:43:02;101998.03;;;21.42;100.00
5996;BME280;3026;53.612;7.278;2023-06-14T07:45:29;101995.88;;;21.50;100.00
5996;BME280;3026;53.612;7.278;2023-06-14T07:47:56;101999.25;;;21.66;100.00
5996;BME280;3026;53.612;7.278;2023-06-14T07:50:23;101994.34;;;21.68;100.00
5996;BME280;3026;53.612;7.278;2023-06-14T07:52:49;101997.91;;;21.75;100.00
5996;BME280;3026;53.612;7.278;2023-06-14T07:55:16;101995.34;;;21.80;100.00
5996;BME280;3026;53.612;7.278;2023-06-14T07:57:43;101991.44;;;21.94;100.00
5996;BME280;3026;53.612;7.278;2023-06-14T08:00:14;101997.81;;;22.15;100.00
5996;BME280;3026;53.612;7.278;2023-06-14T08:02:43;101991.81;;;22.18;100.00
5996;BME280;3026;53.612;7.278;2023-06-14T08:05:11;101996.47;;;22.24;100.00
5996;BME280;3026;53.612;7.278;2023-06-14T08:07:38;101995.94;;;22.40;100.00
5996;BME280;3026;53.612;7.278;2023-06-14T08:10:06;101999.88;;;22.57;100.00
5996;BME280;3026;53.612;7.278;2023-06-14T08:12:34;102005.19;;;22.65;100.00
5996;BME280;3026;53.612;7.278;2023-06-14T08:15:01;102017.13;;;22.73;100.00
5996;BME280;3026;53.612;7.278;2023-06-14T08:17:29;102004.69;;;22.75;99.58
5996;BME280;3026;53.612;7.278;2023-06-14T08:19:56;102006.59;;;22.81;98.34
5996;BME280;3026;53.612;7.278;2023-06-14T08:22:23;102007.28;;;23.02;96.90
5996;BME280;3026;53.612;7.278;2023-06-14T08:24:53;101994.56;;;23.12;95.23
5996;BME280;3026;53.612;7.278;2023-06-14T08:27:20;101992.72;;;23.24;94.98
5996;BME280;3026;53.612;7.278;2023-06-14T08:29:48;101995.56;;;23.43;94.44
5996;BME280;3026;53.612;7.278;2023-06-14T08:32:14;101990.13;;;23.48;93.90
5996;BME280;3026;53.612;7.278;2023-06-14T08:34:42;101987.81;;;23.45;93.47
5996;BME280;3026;53.612;7.278;2023-06-14T08:37:09;101991.22;;;23.47;94.01
5996;BME280;3026;53.612;7.278;2023-06-14T08:39:36;101986.38;;;23.61;92.97
5996;BME280;3026;53.612;7.278;2023-06-14T08:42:04;101983.03;;;23.52;93.32
5996;BME280;3026;53.612;7.278;2023-06-14T08:44:32;101983.69;;;23.72;92.45
5996;BME280;3026;53.612;7.278;2023-06-14T08:47:00;101981.03;;;23.96;92.29
5996;BME280;3026;53.612;7.278;2023-06-14T08:49:29;101988.47;;;24.02;91.76
5996;BME280;3026;53.612;7.278;2023-06-14T08:52:00;101985.06;;;24.00;91.75
5996;BME280;3026;53.612;7.278;2023-06-14T08:54:28;101987.38;;;24.03;90.54
5996;BME280;3026;53.612;7.278;2023-06-14T08:56:55;101984.09;;;24.06;89.12
5996;BME280;3026;53.612;7.278;2023-06-14T08:59:24;101974.22;;;24.10;88.56
5996;BME280;3026;53.612;7.278;2023-06-14T09:01:52;101977.28;;;24.20;88.68
5996;BME280;3026;53.612;7.278;2023-06-14T09:04:20;101978.59;;;24.36;87.86
5996;BME280;3026;53.612;7.278;2023-06-14T09:06:47;101970.31;;;24.71;87.73
5996;BME280;3026;53.612;7.278;2023-06-14T09:09:21;101992.91;;;24.81;85.31
5996;BME280;3026;53.612;7.278;2023-06-14T09:11:50;101991.47;;;24.90;85.83
5996;BME280;3026;53.612;7.278;2023-06-14T09:14:17;101991.63;;;25.07;84.48
5996;BME280;3026;53.612;7.278;2023-06-14T09:16:44;101989.84;;;25.13;83.35
5996;BME280;3026;53.612;7.278;2023-06-14T09:19:14;101982.06;;;25.15;82.77
5996;BME280;3026;53.612;7.278;2023-06-14T09:21:47;101996.25;;;25.13;81.62
5996;BME280;3026;53.612;7.278;2023-06-14T09:24:14;101993.59;;;25.18;80.77
5996;BME280;3026;53.612;7.278;2023-06-14T09:26:42;101995.16;;;25.26;79.81
5996;BME280;3026;53.612;7.278;2023-06-14T09:29:09;101997.72;;;25.27;78.41
5996;BME280;3026;53.612;7.278;2023-06-14T09:31:36;101989.09;;;25.29;78.65
5996;BME280;3026;53.612;7.278;2023-06-14T09:34:03;101998.56;;;25.28;77.85
5996;BME280;3026;53.612;7.278;2023-06-14T09:36:32;101997.22;;;25.30;76.60
5996;BME280;3026;53.612;7.278;2023-06-14T09:39:01;101999.16;;;25.42;77.59
5996;BME280;3026;53.612;7.278;2023-06-14T09:41:31;101994.16;;;25.55;78.94
5996;BME280;3026;53.612;7.278;2023-06-14T09:44:01;101992.13;;;25.51;79.47
5996;BME280;3026;53.612;7.278;2023-06-14T09:46:29;101984.59;;;25.40;81.27
5996;BME280;3026;53.612;7.278;2023-06-14T09:48:57;101986.19;;;25.47;81.49
5996;BME280;3026;53.612;7.278;2023-06-14T09:51:24;101989.56;;;25.49;80.74
5996;BME280;3026;53.612;7.278;2023-06-14T09:53:52;101992.97;;;25.51;81.99
5996;BME280;3026;53.612;7.278;2023-06-14T09:56:23;101991.75;;;25.71;79.42
5996;BME280;3026;53.612;7.278;2023-06-14T09:58:56;101992.63;;;25.71;77.94
5996;BME280;3026;53.612;7.278;2023-06-14T10:01:25;101991.09;;;25.69;78.03
5996;BME280;3026;53.612;7.278;2023-06-14T10:03:55;101981.88;;;25.68;78.20
5996;BME280;3026;53.612;7.278;2023-06-14T10:06:27;101985.09;;;25.72;80.73
5996;BME280;3026;53.612;7.278;2023-06-14T10:08:57;101993.53;;;25.88;78.83
5996;BME280;3026;53.612;7.278;2023-06-14T10:11:25;101996.28;;;26.00;78.39
5996;BME280;3026;53.612;7.278;2023-06-14T10:13:53;101991.22;;;25.97;80.26
5996;BME280;3026;53.612;7.278;2023-06-14T10:16:26;101985.13;;;26.00;79.50
5996;BME280;3026;53.612;7.278;2023-06-14T10:19:02;101992.91;;;25.98;79.69
5996;BME280;3026;53.612;7.278;2023-06-14T10:21:36;101996.88;;;26.02;80.22
5996;BME280;3026;53.612;7.278;2023-06-14T10:24:07;102002.59;;;26.07;80.20
5996;BME280;3026;53.612;7.278;2023-06-14T10:26:50;102009.16;;;26.01;79.30
5996;BME280;3026;53.612;7.278;2023-06-14T10:29:17;102008.84;;;25.86;79.05
5996;BME280;3026;53.612;7.278;2023-06-14T10:31:47;102008.25;;;25.84;79.17
5996;BME280;3026;53.612;7.278;2023-06-14T10:34:21;101996.22;;;25.83;78.84
5996;BME280;3026;53.612;7.278;2023-06-14T10:37:01;102005.47;;;25.72;79.49
5996;BME280;3026;53.612;7.278;2023-06-14T10:39:28;102000.25;;;25.76;80.05
5996;BME280;3026;53.612;7.278;2023-06-14T10:41:56;101994.75;;;25.81;80.44
5996;BME280;3026;53.612;7.278;2023-06-14T10:44:49;101999.63;;;25.62;79.78
5996;BME280;3026;53.612;7.278;2023-06-14T10:47:23;102000.47;;;25.63;81.06
5996;BME280;3026;53.612;7.278;2023-06-14T10:49:52;101994.41;;;25.54;81.49
5996;BME280;3026;53.612;7.278;2023-06-14T10:52:22;101995.84;;;25.56;81.65
5996;BME280;3026;53.612;7.278;2023-06-14T10:54:58;101992.69;;;25.65;82.61
5996;BME280;3026;53.612;7.278;2023-06-14T10:57:25;101991.34;;;25.91;83.82
5996;BME280;3026;53.612;7.278;2023-06-14T10:59:52;101996.28;;;26.00;82.17
5996;BME280;3026;53.612;7.278;2023-06-14T11:05:24;101999.47;;;25.92;81.79
5996;BME280;3026;53.612;7.278;2023-06-14T11:08:02;101992.31;;;25.96;82.26
5996;BME280;3026;53.612;7.278;2023-06-14T11:10:37;101991.72;;;25.94;82.06
5996;BME280;3026;53.612;7.278;2023-06-14T11:13:05;101986.03;;;25.77;81.75
5996;BME280;3026;53.612;7.278;2023-06-14T11:15:32;101983.97;;;25.73;82.28
5996;BME280;3026;53.612;7.278;2023-06-14T11:18:00;101983.97;;;25.73;82.37
5996;BME280;3026;53.612;7.278;2023-06-14T11:20:30;101990.03;;;25.70;82.06
5996;BME280;3026;53.612;7.278;2023-06-14T11:22:57;101984.84;;;25.73;81.36
5996;BME280;3026;53.612;7.278;2023-06-14T11:25:25;101987.25;;;25.70;81.07
5996;BME280;3026;53.612;7.278;2023-06-14T11:27:54;101986.19;;;25.71;81.11
5996;BME280;3026;53.612;7.278;2023-06-14T11:30:21;101977.03;;;25.75;82.53
5996;BME280;3026;53.612;7.278;2023-06-14T11:32:49;101983.72;;;25.74;83.82
5996;BME280;3026;53.612;7.278;2023-06-14T11:35:16;101972.19;;;25.82;83.06
5996;BME280;3026;53.612;7.278;2023-06-14T11:37:45;101971.31;;;25.94;82.82
5996;BME280;3026;53.612;7.278;2023-06-14T11:40:13;101970.53;;;25.98;82.79
5996;BME280;3026;53.612;7.278;2023-06-14T11:42:41;101974.94;;;25.94;82.36
5996;BME280;3026;53.612;7.278;2023-06-14T11:45:09;101972.19;;;25.82;80.84
5996;BME280;3026;53.612;7.278;2023-06-14T11:47:37;101968.91;;;25.74;79.23
5996;BME280;3026;53.612;7.278;2023-06-14T11:50:06;101967.69;;;25.70;80.72
5996;BME280;3026;53.612;7.278;2023-06-14T11:52:34;101965.97;;;25.69;80.20
5996;BME280;3026;53.612;7.278;2023-06-14T11:55:03;101962.81;;;25.77;82.25
5996;BME280;3026;53.612;7.278;2023-06-14T11:57:33;101968.53;;;25.82;83.04
5996;BME280;3026;53.612;7.278;2023-06-14T12:00:03;101969.72;;;25.86;82.37
5996;BME280;3026;53.612;7.278;2023-06-14T12:02:33;101957.25;;;25.77;83.08
5996;BME280;3026;53.612;7.278;2023-06-14T12:05:04;101965.97;;;25.69;82.22
5996;BME280;3026;53.612;7.278;2023-06-14T12:07:33;101963.41;;;25.67;82.78
5996;BME280;3026;53.612;7.278;2023-06-14T12:10:08;101957.00;;;25.67;83.33
5996;BME280;3026;53.612;7.278;2023-06-14T12:12:37;101959.09;;;25.71;83.05
5996;BME280;3026;53.612;7.278;2023-06-14T12:15:05;101954.78;;;25.69;82.73
5996;BME280;3026;53.612;7.278;2023-06-14T12:17:33;101959.19;;;25.65;82.88
5996;BME280;3026;53.612;7.278;2023-06-14T12:20:05;101966.72;;;25.52;83.09
5996;BME280;3026;53.612;7.278;2023-06-14T12:22:36;101961.16;;;25.52;82.53
5996;BME280;3026;53.612;7.278;2023-06-14T12:25:03;101965.28;;;25.50;81.81
5996;BME280;3026;53.612;7.278;2023-06-14T12:27:32;101966.63;;;25.47;81.01
5996;BME280;3026;53.612;7.278;2023-06-14T12:30:00;101963.22;;;25.45;81.48
5996;BME280;3026;53.612;7.278;2023-06-14T12:32:28;101966.00;;;25.45;81.35
5996;BME280;3026;53.612;7.278;2023-06-14T12:34:55;101962.63;;;25.43;81.54
5996;BME280;3026;53.612;7.278;2023-06-14T12:37:22;101959.81;;;25.43;81.07
5996;BME280;3026;53.612;7.278;2023-06-14T12:39:48;101958.38;;;25.29;79.95
5996;BME280;3026;53.612;7.278;2023-06-14T12:42:16;101967.25;;;25.26;79.85
5996;BME280;3026;53.612;7.278;2023-06-14T12:44:45;101959.97;;;25.25;80.05
5996;BME280;3026;53.612;7.278;2023-06-14T12:47:11;101966.03;;;25.22;79.96
5996;BME280;3026;53.612;7.278;2023-06-14T12:49:39;101956.34;;;25.24;80.36
5996;BME280;3026;53.612;7.278;2023-06-14T12:52:08;101947.47;;;25.27;79.86
5996;BME280;3026;53.612;7.278;2023-06-14T12:54:34;101968.69;;;25.28;79.52
5996;BME280;3026;53.612;7.278;2023-06-14T12:57:01;101965.31;;;25.38;79.72
5996;BME280;3026;53.612;7.278;2023-06-14T12:59:28;101957.63;;;25.34;78.67
5996;BME280;3026;53.612;7.278;2023-06-14T13:02:09;101963.22;;;25.34;78.82
5996;BME280;3026;53.612;7.278;2023-06-14T13:04:36;101952.91;;;25.34;79.22
5996;BME280;3026;53.612;7.278;2023-06-14T13:07:04;101954.13;;;25.38;79.64
5996;BME280;3026;53.612;7.278;2023-06-14T13:09:31;101955.47;;;25.36;80.03
5996;BME280;3026;53.612;7.278;2023-06-14T13:11:57;101955.22;;;25.37;79.32
5996;BME280;3026;53.612;7.278;2023-06-14T13:14:24;101956.31;;;25.36;79.00